createdAt,value
2022-09-26T00:03:20.476Z,15.56
2022-09-26T00:08:22.226Z,15.57
2022-09-26T00:13:24.521Z,15.58
2022-09-26T00:18:26.382Z,15.59
2022-09-26T00:23:27.836Z,15.60
2022-09-26T00:28:29.596Z,15.62
2022-09-26T00:33:31.288Z,15.63
2022-09-26T00:38:33.736Z,15.66
2022-09-26T00:43:41.695Z,15.66
2022-09-26T00:48:48.907Z,15.66
2022-09-26T00:53:53.262Z,15.59
2022-09-26T00:59:08.546Z,15.53
2022-09-26T01:04:12.400Z,15.49
2022-09-26T01:09:15.167Z,15.45
2022-09-26T01:14:17.221Z,15.46
2022-09-26T01:19:40.227Z,15.47
2022-09-26T01:25:14.291Z,15.46
2022-09-26T01:30:29.192Z,15.45
2022-09-26T01:35:46.011Z,15.38
2022-09-26T01:41:02.924Z,15.32
2022-09-26T01:46:21.139Z,15.28
2022-09-26T01:51:32.750Z,15.23
2022-09-26T01:56:38.518Z,15.19
2022-09-26T02:01:44.961Z,15.11
2022-09-26T02:06:59.469Z,15.00
2022-09-26T02:12:06.673Z,14.88
2022-09-26T02:17:12.876Z,14.86
2022-09-26T02:22:14.444Z,14.86
2022-09-26T02:27:15.955Z,14.86
2022-09-26T02:32:23.501Z,14.84
2022-09-26T02:37:26.057Z,14.80
2022-09-26T02:42:36.614Z,14.82
2022-09-26T02:48:18.803Z,14.85
2022-09-26T02:53:41.705Z,14.82
2022-09-26T02:58:59.002Z,14.84
2022-09-26T03:04:08.454Z,14.79
2022-09-26T03:09:12.408Z,14.77
2022-09-26T03:14:17.996Z,14.78
2022-09-26T03:19:39.551Z,14.78
2022-09-26T03:24:42.976Z,14.74
2022-09-26T03:29:44.613Z,14.70
2022-09-26T03:34:52.245Z,14.71
2022-09-26T03:39:53.752Z,14.71
2022-09-26T03:45:12.820Z,14.66
2022-09-26T03:50:36.766Z,14.63
2022-09-26T03:55:38.413Z,14.65
2022-09-26T04:00:40.101Z,14.61
2022-09-26T04:05:43.559Z,14.58
2022-09-26T04:10:46.079Z,14.56
2022-09-26T04:15:56.048Z,14.54
2022-09-26T04:21:27.101Z,14.48
2022-09-26T04:26:28.952Z,14.54
2022-09-26T04:31:30.597Z,14.57
2022-09-26T04:36:40.774Z,14.54
2022-09-26T04:41:42.546Z,14.57
2022-09-26T04:46:44.495Z,14.58
2022-09-26T04:51:47.734Z,14.60
2022-09-26T04:56:49.798Z,14.58
2022-09-26T05:01:51.423Z,14.56
2022-09-26T05:06:59.307Z,14.54
2022-09-26T05:12:06.760Z,14.55
2022-09-26T05:17:10.146Z,14.57
2022-09-26T05:22:12.132Z,14.58
2022-09-26T05:27:15.266Z,14.59
2022-09-26T05:32:17.612Z,14.59
2022-09-26T05:37:19.313Z,14.59
2022-09-26T05:42:20.905Z,14.60
2022-09-26T05:47:23.896Z,14.60
2022-09-26T05:52:28.228Z,14.58
2022-09-26T05:57:29.774Z,14.60
2022-09-26T06:02:31.825Z,14.63
2022-09-26T06:07:50.548Z,14.60
2022-09-26T06:13:08.376Z,14.46
2022-09-26T06:18:27.845Z,14.46
2022-09-26T06:23:31.230Z,14.43
2022-09-26T06:28:33.264Z,14.41
2022-09-26T06:33:34.778Z,14.42
2022-09-26T06:38:53.490Z,14.45
2022-09-26T06:43:56.776Z,14.49
2022-09-26T06:49:04.408Z,14.55
2022-09-26T06:54:23.198Z,14.59
2022-09-26T06:59:25.058Z,14.63
2022-09-26T07:04:35.925Z,14.68
2022-09-26T07:09:48.430Z,14.72
2022-09-26T07:15:09.918Z,14.78
2022-09-26T07:20:15.931Z,14.87
2022-09-26T07:25:47.298Z,14.99
2022-09-26T07:30:49.546Z,15.02
2022-09-26T07:36:04.550Z,15.07
2022-09-26T07:41:10.889Z,15.13
2022-09-26T07:46:32.432Z,15.18
2022-09-26T07:51:34.574Z,15.29
2022-09-26T07:56:42.657Z,15.45
2022-09-26T08:02:34.089Z,15.55
2022-09-26T08:07:38.365Z,15.59
2022-09-26T08:12:48.506Z,15.66
2022-09-26T08:18:19.995Z,15.81
2022-09-26T08:23:21.997Z,15.94
2022-09-26T08:28:44.016Z,16.02
2022-09-26T08:33:47.731Z,16.15
2022-09-26T08:38:49.951Z,16.28
2022-09-26T08:44:46.613Z,16.32
2022-09-26T08:50:33.201Z,16.30
2022-09-26T08:55:40.693Z,16.29
2022-09-26T09:00:42.633Z,16.34
2022-09-26T09:05:56.151Z,16.47
2022-09-26T09:11:19.482Z,16.53
2022-09-26T09:16:27.992Z,16.50
2022-09-26T09:22:21.588Z,16.47
2022-09-26T09:27:52.733Z,16.44
2022-09-26T09:32:59.335Z,16.51
2022-09-26T09:38:18.466Z,16.67
2022-09-26T09:43:37.516Z,16.82
2022-09-26T09:48:39.230Z,16.95
2022-09-26T09:54:13.724Z,17.03
2022-09-26T09:59:45.755Z,17.09
2022-09-26T10:05:00.878Z,17.06
2022-09-26T10:10:02.627Z,17.10
2022-09-26T10:15:27.130Z,17.21
2022-09-26T10:21:02.523Z,17.26
2022-09-26T10:26:07.683Z,17.41
2022-09-26T10:31:11.864Z,17.52
2022-09-26T10:36:40.144Z,17.59
2022-09-26T10:41:45.068Z,17.60
2022-09-26T10:46:49.552Z,17.63
2022-09-26T10:52:27.846Z,17.65
2022-09-26T10:57:40.820Z,17.67
2022-09-26T11:02:47.064Z,17.69
2022-09-26T11:07:52.251Z,17.76
2022-09-26T11:13:22.606Z,17.83
2022-09-26T11:18:40.680Z,18.01
2022-09-26T11:23:53.951Z,18.05
2022-09-26T11:29:06.190Z,18.21
2022-09-26T11:34:26.650Z,18.30
2022-09-26T11:40:09.904Z,18.35
2022-09-26T11:45:33.672Z,18.39
2022-09-26T11:51:37.069Z,18.40
2022-09-26T11:57:08.531Z,18.43
2022-09-26T12:02:33.197Z,18.39
2022-09-26T12:08:19.142Z,18.26
2022-09-26T12:13:48.291Z,18.18
2022-09-26T12:19:15.592Z,18.04
2022-09-26T12:24:28.756Z,18.08
2022-09-26T12:30:02.702Z,18.17
2022-09-26T12:35:21.137Z,18.28
2022-09-26T12:40:33.535Z,18.33
2022-09-26T12:46:03.025Z,18.32
2022-09-26T12:51:22.256Z,18.30
2022-09-26T12:56:46.334Z,18.25
2022-09-26T13:02:02.900Z,18.20
2022-09-26T13:07:20.646Z,18.20
2022-09-26T13:12:41.222Z,18.24
2022-09-26T13:17:47.732Z,18.23
2022-09-26T13:22:55.875Z,18.20
2022-09-26T13:28:05.134Z,18.21
2022-09-26T13:33:18.387Z,18.26
2022-09-26T13:38:40.898Z,18.25
2022-09-26T13:43:56.720Z,18.27
2022-09-26T13:49:25.145Z,18.30
2022-09-26T13:54:46.783Z,18.38
2022-09-26T13:59:53.086Z,18.49
2022-09-26T14:05:03.636Z,18.58
2022-09-26T14:10:18.443Z,18.72
2022-09-26T14:15:25.944Z,18.85
2022-09-26T14:20:31.767Z,18.99
2022-09-26T14:25:45.354Z,19.11
2022-09-26T14:31:22.165Z,19.27
2022-09-26T14:36:26.895Z,19.37
2022-09-26T14:41:31.980Z,19.43
2022-09-26T14:46:35.595Z,19.57
2022-09-26T14:51:41.287Z,19.70
2022-09-26T14:56:49.483Z,19.74
2022-09-26T15:01:53.201Z,19.78
2022-09-26T15:07:00.242Z,19.84
2022-09-26T15:12:08.799Z,19.95
2022-09-26T15:17:23.393Z,20.02
2022-09-26T15:22:29.347Z,20.04
2022-09-26T15:27:31.699Z,20.05
2022-09-26T15:32:33.589Z,20.06
2022-09-26T15:37:36.279Z,20.07
2022-09-26T15:42:56.327Z,20.13
2022-09-26T15:48:00.307Z,20.22
2022-09-26T15:58:06.602Z,20.24
2022-09-26T16:04:03.576Z,20.16
2022-09-26T16:09:16.695Z,20.04
2022-09-26T16:14:26.540Z,19.93
2022-09-26T16:19:43.232Z,19.82
2022-09-26T16:24:44.709Z,19.64
2022-09-26T16:29:51.826Z,19.48
2022-09-26T16:34:53.297Z,19.34
2022-09-26T16:39:58.965Z,19.22
2022-09-26T16:45:04.751Z,19.12
2022-09-26T16:50:27.011Z,18.97
2022-09-26T16:55:32.724Z,18.83
2022-09-26T17:00:53.477Z,18.71
2022-09-26T17:05:56.841Z,18.61
2022-09-26T17:11:03.682Z,18.54
2022-09-26T17:16:06.786Z,18.46
2022-09-26T17:21:08.700Z,18.39
2022-09-26T17:26:19.901Z,18.28
2022-09-26T17:31:21.615Z,18.19
2022-09-26T17:36:28.427Z,18.12
2022-09-26T17:41:32.588Z,18.05
2022-09-26T17:46:37.391Z,17.99
2022-09-26T17:51:39.716Z,17.86
2022-09-26T17:56:41.237Z,17.77
2022-09-26T18:01:42.783Z,17.65
2022-09-26T18:06:44.723Z,17.53
2022-09-26T18:11:55.603Z,17.44
2022-09-26T18:16:58.159Z,17.34
2022-09-26T18:21:59.738Z,17.24
2022-09-26T18:27:07.102Z,17.14
2022-09-26T18:32:20.192Z,17.04
2022-09-26T18:37:21.848Z,16.99
2022-09-26T18:42:24.371Z,17.00
2022-09-26T18:47:26.394Z,16.99
2022-09-26T18:52:29.101Z,16.97
2022-09-26T18:57:49.345Z,16.92
2022-09-26T19:02:51.075Z,16.86
2022-09-26T19:07:53.136Z,16.82
2022-09-26T19:12:55.469Z,16.80
2022-09-26T19:17:57.113Z,16.73
2022-09-26T19:22:58.676Z,16.70
2022-09-26T19:28:00.279Z,16.65
2022-09-26T19:33:01.784Z,16.58
2022-09-26T19:38:16.115Z,16.53
2022-09-26T19:43:18.032Z,16.49
2022-09-26T19:48:22.096Z,16.46
2022-09-26T19:53:23.988Z,16.41
2022-09-26T19:58:27.889Z,16.29
2022-09-26T20:03:33.707Z,16.19
2022-09-26T20:08:35.269Z,16.13
2022-09-26T20:13:55.635Z,16.05
2022-09-26T20:18:57.834Z,16.03
2022-09-26T20:24:02.739Z,16.00
2022-09-26T20:29:04.238Z,15.96
2022-09-26T20:34:05.713Z,15.91
2022-09-26T20:39:13.499Z,15.91
2022-09-26T20:44:27.249Z,15.89
2022-09-26T20:49:34.258Z,15.91
2022-09-26T20:54:36.221Z,15.91
2022-09-26T20:59:37.797Z,15.90
2022-09-26T21:04:39.310Z,15.90
2022-09-26T21:09:41.775Z,15.89
2022-09-26T21:14:43.534Z,15.87
2022-09-26T21:19:45.508Z,15.86
2022-09-26T21:25:14.481Z,15.84
2022-09-26T21:30:16.995Z,15.83
2022-09-26T21:35:19.906Z,15.82
2022-09-26T21:40:26.100Z,15.82
2022-09-26T21:45:27.876Z,15.78
2022-09-26T21:50:29.646Z,15.76
2022-09-26T21:55:36.348Z,15.75
2022-09-26T22:00:37.817Z,15.69
2022-09-26T22:05:39.327Z,15.65
2022-09-26T22:10:40.995Z,15.61
2022-09-26T22:15:42.515Z,15.60
2022-09-26T22:20:44.010Z,15.57
2022-09-26T22:25:49.667Z,15.53
2022-09-26T22:30:51.353Z,15.53
2022-09-26T22:35:52.862Z,15.51
2022-09-26T22:40:59.690Z,15.47
2022-09-26T22:46:09.700Z,15.47
2022-09-26T22:51:11.652Z,15.46
2022-09-26T22:56:15.096Z,15.48
2022-09-26T23:01:24.741Z,15.45
2022-09-26T23:06:26.968Z,15.43
2022-09-26T23:11:28.702Z,15.43
2022-09-26T23:16:30.316Z,15.39
2022-09-26T23:21:31.857Z,15.38
2022-09-26T23:26:33.460Z,15.37
2022-09-26T23:31:35.572Z,15.35
2022-09-26T23:36:37.037Z,15.29
2022-09-26T23:41:38.550Z,15.24
2022-09-26T23:46:40.151Z,15.22
2022-09-26T23:51:42.356Z,15.21
2022-09-26T23:56:43.855Z,15.17
